Fort Abbas Weather



Fort Abbas's Current Weather

Temprature 38.32o overcast clouds

overcast clouds

Rain: 0 %

Min Temprature38.32o
Max Temprature38.32o
Humidity38
Wind Speed3.99 m/h
Sun Rise05:24:12
Sun Set19:05:39
Current Time: 24-Jul-2021 16:43:54
Lat/Lon: 29.1925, 72.8536




Fort Abbas's Geo Location



Fort Abbas's Weather Forecast

Time Overall Temp Min Temp Max Temp Humidity Wind Speed Rain
24-Jul-2021 (Sat)
17:00:00 overcast clouds 38.320 38.320 38.320 38 3.99 m/h 0 %
20:00:00 overcast clouds 38.040 37.490 38.040 39 2.12 m/h 0 %
23:00:00 broken clouds 37.290 36.770 37.290 42 2.13 m/h 0 %
25-Jul-2021 (Sun)
02:00:00 few clouds 35.920 35.920 35.920 45 2.61 m/h 0 %
05:00:00 few clouds 35.100 35.100 35.100 48 2.69 m/h 0 %
08:00:00 scattered clouds 37.240 37.240 37.240 41 2.28 m/h 0 %
11:00:00 scattered clouds 39.840 39.840 39.840 34 2.69 m/h 0 %
14:00:00 scattered clouds 41.910 41.910 41.910 29 3.26 m/h 0 %
17:00:00 scattered clouds 42.310 42.310 42.310 27 3.24 m/h 0 %
20:00:00 scattered clouds 41.260 41.260 41.260 29 4.1 m/h 0 %
23:00:00 broken clouds 39.250 39.250 39.250 35 6.93 m/h 0 %
26-Jul-2021 (Mon)
02:00:00 broken clouds 35.610 35.610 35.610 45 7.93 m/h 0 %
05:00:00 broken clouds 34.010 34.010 34.010 52 7.41 m/h 0 %
08:00:00 overcast clouds 33.720 33.720 33.720 53 7.91 m/h 0 %
11:00:00 overcast clouds 34.850 34.850 34.850 47 7.38 m/h 0 %
14:00:00 overcast clouds 37.960 37.960 37.960 37 5.5 m/h 0 %
17:00:00 overcast clouds 39.080 39.080 39.080 35 6.05 m/h 0 %
20:00:00 overcast clouds 37.210 37.210 37.210 39 8.44 m/h 0 %
23:00:00 overcast clouds 34.740 34.740 34.740 45 10.1 m/h 0 %
27-Jul-2021 (Tue)
02:00:00 overcast clouds 31.570 31.570 31.570 58 10.8 m/h 0 %
05:00:00 overcast clouds 30.050 30.050 30.050 67 9.83 m/h 0 %
08:00:00 overcast clouds 31.040 31.040 31.040 61 8.43 m/h 0 %
11:00:00 overcast clouds 33.750 33.750 33.750 52 8.58 m/h 0 %
14:00:00 overcast clouds 34.850 34.850 34.850 47 8.93 m/h 0 %
17:00:00 overcast clouds 34.110 34.110 34.110 50 7.56 m/h 0 %
20:00:00 light rain 32.880 32.880 32.880 54 7.47 m/h 16 %
23:00:00 light rain 29.980 29.980 29.980 68 6.69 m/h 84 %
28-Jul-2021 (Wed)
02:00:00 light rain 30.130 30.130 30.130 67 5.91 m/h 23 %
05:00:00 overcast clouds 29.500 29.500 29.500 71 5.59 m/h 0 %
08:00:00 light rain 30.090 30.090 30.090 69 6.47 m/h 132 %
11:00:00 light rain 33.570 33.570 33.570 52 5.44 m/h 34 %
14:00:00 light rain 36.100 36.100 36.100 43 4.76 m/h 13 %
17:00:00 overcast clouds 35.730 35.730 35.730 43 5.81 m/h 0 %
20:00:00 overcast clouds 34.140 34.140 34.140 47 5.65 m/h 0 %
23:00:00 overcast clouds 32.960 32.960 32.960 53 5.43 m/h 0 %
29-Jul-2021 (Thu)
02:00:00 overcast clouds 32.520 32.520 32.520 54 4.68 m/h 0 %
05:00:00 overcast clouds 31.480 31.480 31.480 60 4.39 m/h 0 %
08:00:00 overcast clouds 32.200 32.200 32.200 59 4.38 m/h 0 %
11:00:00 broken clouds 34.920 34.920 34.920 49 2.52 m/h 0 %
14:00:00 broken clouds 36.540 36.540 36.540 43 3.72 m/h 0 %

Famous Cities (60)